Habib Express — 5IM379 — position and weather

sailwx.info

Track history (hours):
 
Tides and Currents Weather Stations Pressure Air Temp Water Temp Dewpoint Dewpoint Depression Visibility Wind Speed Wind Dir Waves Ship Positions

Habib Express

Last reported at 2018-Jul-20 14:14 UTC. Time now 2018-Jul-23 06:10 UTC.
Position N 25°24' W 079°48'.

Length 90 m; draft 3.7 m.

Type: Cargo ship. MMSI: 677027900.

Date/timePositionNaut miles runAvg speedWind from/ knotsBaromVisibWave heightAir tempDewpointWater temp
2018-Jul-20 14:14N 25°24' W 079°48'2 9.6
2018-Jul-20 13:59N 25°26' W 079°49'4 9.2
2018-Jul-20 13:30N 25°30' W 079°52'5 9.3
2018-Jul-20 13:01N 25°34' W 079°55'5 9.8
2018-Jul-20 12:31N 25°38' W 079°58'5 9.5
2018-Jul-20 12:00N 25°42' W 080°01'5 9.8
2018-Jul-20 11:31N 25°46' W 080°04'511.0
2018-Jul-20 11:01N 25°46' W 080°10'1 2.4
2018-Jul-20 10:31N 25°46' W 080°12'1 2.9
2018-Jul-20 10:01N 25°47' W 080°13'1 2.8
2018-Jul-20 09:30N 25°48' W 080°14'0 0.7
2018-Jul-20 08:59N 25°48' W 080°15'0 0.0
2018-Jul-20 08:29N 25°48' W 080°15'0 0.0
2018-Jul-20 07:59N 25°48' W 080°15'0 0.0
2018-Jul-20 07:29N 25°48' W 080°15'0 0.0
2018-Jul-20 06:59N 25°48' W 080°15'0 0.0
2018-Jul-20 06:29N 25°48' W 080°15'0 0.0
2018-Jul-20 05:59N 25°48' W 080°15'0 0.0
2018-Jul-20 05:29N 25°48' W 080°15'0 0.0
2018-Jul-20 04:59N 25°48' W 080°15'0 0.0
2018-Jul-20 04:29N 25°48' W 080°15'0 0.0
2018-Jul-20 03:59N 25°48' W 080°15'0 0.0
2018-Jul-20 03:26N 25°48' W 080°15'0 0.0
2018-Jul-20 02:59N 25°48' W 080°15'0 0.0
2018-Jul-20 02:23N 25°48' W 080°15'0 0.0
2018-Jul-20 01:59N 25°48' W 080°15'0 0.0
2018-Jul-20 01:26N 25°48' W 080°15'0 0.0
2018-Jul-20 00:59N 25°48' W 080°15'0 0.0
2018-Jul-20 00:26N 25°48' W 080°15'0 0.0
2018-Jul-19 23:59N 25°48' W 080°15'0 0.0
2018-Jul-19 23:29N 25°48' W 080°15'0 0.0
2018-Jul-19 22:59N 25°48' W 080°15'0 0.0
2018-Jul-19 22:29N 25°48' W 080°15'0 0.0
2018-Jul-19 21:59N 25°48' W 080°15'0 0.0
2018-Jul-19 21:26N 25°48' W 080°15'0 0.0
2018-Jul-19 20:59N 25°48' W 080°15'0 0.0
2018-Jul-19 20:29N 25°48' W 080°15'0 0.0
2018-Jul-19 19:59N 25°48' W 080°15'0 0.0
2018-Jul-19 19:29N 25°48' W 080°15'0 0.0
2018-Jul-19 18:59N 25°48' W 080°15'0 0.0
2018-Jul-19 18:29N 25°48' W 080°15'0 0.0
2018-Jul-19 17:59N 25°48' W 080°15'0 0.0
2018-Jul-19 17:29N 25°48' W 080°15'0 0.0
2018-Jul-19 16:59N 25°48' W 080°15'0 0.3
2018-Jul-19 16:30N 25°48' W 080°15'1 2.5
2018-Jul-19 16:00N 25°47' W 080°13'1 3.0
2018-Jul-19 15:30N 25°46' W 080°12'1 2.9
2018-Jul-19 15:01N 25°46' W 080°10'5 5.0
2018-Jul-19 14:01N 25°47' W 080°05'0 0.1
2018-Jul-19 13:29N 25°47' W 080°05'0 0.0
2018-Jul-19 12:59N 25°47' W 080°05'0 0.0
2018-Jul-19 12:29N 25°47' W 080°05'0 0.0
2018-Jul-19 11:59N 25°47' W 080°05'0 0.0
2018-Jul-19 11:29N 25°47' W 080°05'0 0.0
2018-Jul-19 10:59N 25°47' W 080°05'0 0.0
2018-Jul-19 10:29N 25°47' W 080°05'0 0.0
2018-Jul-19 09:59N 25°47' W 080°05'0 0.0
2018-Jul-19 09:29N 25°47' W 080°05'0 0.0
2018-Jul-19 08:59N 25°47' W 080°05'0 0.0
2018-Jul-19 08:29N 25°47' W 080°05'0 0.0
2018-Jul-19 07:59N 25°47' W 080°05'0 0.1
2018-Jul-19 07:29N 25°47' W 080°05'0 0.0
2018-Jul-19 06:59N 25°47' W 080°05'2 3.3
2018-Jul-19 06:30N 25°46' W 080°04'612.0
2018-Jul-19 06:00N 25°40' W 080°02'612.1
2018-Jul-19 05:30N 25°35' W 079°59'714.8
2018-Jul-19 05:00N 25°28' W 079°55'714.7
2018-Jul-19 04:30N 25°22' W 079°50'  
2018-Jul-12 03:16N 25°36' W 079°58'310.0
2018-Jul-12 03:00N 25°38' W 079°59'611.4
2018-Jul-12 02:30N 25°43' W 080°02'4 7.6
2018-Jul-12 01:58N 25°46' W 080°05'3 7.5
2018-Jul-12 01:30N 25°46' W 080°09'2 3.6
2018-Jul-12 01:00N 25°46' W 080°11'2 2.8
2018-Jul-12 00:17N 25°47' W 080°13'2 0.2
2018-Jul-11 14:59N 25°48' W 080°15'0 0.0
2018-Jul-11 14:29N 25°48' W 080°15'0 0.0
2018-Jul-11 13:59N 25°48' W 080°15'0 0.0
2018-Jul-11 13:29N 25°48' W 080°15'0 0.0
2018-Jul-11 12:59N 25°48' W 080°15'0 0.0
2018-Jul-11 12:29N 25°48' W 080°15'0 0.0
2018-Jul-11 11:59N 25°48' W 080°15'0 0.0
2018-Jul-11 11:23N 25°48' W 080°15'0 0.0
2018-Jul-11 10:53N 25°48' W 080°15'0 0.0
2018-Jul-11 10:26N 25°48' W 080°15'0 0.0
2018-Jul-11 09:56N 25°48' W 080°15'0 0.0
2018-Jul-11 09:29N 25°48' W 080°15'0 0.0
2018-Jul-11 08:59N 25°48' W 080°15'0 0.0
2018-Jul-11 08:26N 25°48' W 080°15'0 0.0
2018-Jul-11 07:59N 25°48' W 080°15'0 0.0
2018-Jul-11 07:26N 25°48' W 080°15'0 0.0
2018-Jul-11 06:56N 25°48' W 080°15'0 0.0
2018-Jul-11 06:29N 25°48' W 080°15'0 0.0
2018-Jul-11 05:56N 25°48' W 080°15'0 0.0
2018-Jul-11 05:26N 25°48' W 080°15'0 0.0
2018-Jul-11 04:59N 25°48' W 080°15'0 0.0
2018-Jul-11 04:29N 25°48' W 080°15'0 0.0
2018-Jul-11 03:59N 25°48' W 080°15'0 0.0
2018-Jul-11 03:29N 25°48' W 080°15'0 0.0
2018-Jul-11 02:56N 25°48' W 080°15'0 0.0
2018-Jul-11 02:29N 25°48' W 080°15'0 0.0
2018-Jul-11 01:56N 25°48' W 080°15'0 0.0
2018-Jul-11 01:29N 25°48' W 080°15'0 0.0
2018-Jul-11 00:59N 25°48' W 080°15'0 0.0
2018-Jul-11 00:29N 25°48' W 080°15'0 0.0
2018-Jul-10 23:59N 25°48' W 080°15'0 0.0
2018-Jul-10 23:26N 25°48' W 080°15'0 0.0
2018-Jul-10 22:59N 25°48' W 080°15'0 0.0
2018-Jul-10 22:29N 25°48' W 080°15'0 0.0
2018-Jul-10 21:59N 25°48' W 080°15'0 0.0
2018-Jul-10 21:26N 25°48' W 080°15'0 0.0
2018-Jul-10 20:59N 25°48' W 080°15'0 0.0
2018-Jul-10 20:29N 25°48' W 080°15'0 0.0
2018-Jul-10 19:59N 25°48' W 080°15'0 0.0
2018-Jul-10 19:29N 25°48' W 080°15'0 0.0
2018-Jul-10 18:53N 25°48' W 080°15'0 0.0
2018-Jul-10 18:29N 25°48' W 080°15'0 0.0
2018-Jul-10 17:59N 25°48' W 080°15'0 0.0
2018-Jul-10 17:29N 25°48' W 080°15'0 0.0
2018-Jul-10 16:50N 25°48' W 080°15'0 0.0
2018-Jul-10 16:23N 25°48' W 080°15'0 0.0
2018-Jul-10 15:56N 25°48' W 080°15'0 0.0
2018-Jul-10 15:26N 25°48' W 080°15'0 0.0
2018-Jul-10 14:56N 25°48' W 080°15'0 0.0
2018-Jul-10 14:26N 25°48' W 080°15'  
Track history (hours):
 
Tides and Currents Weather Stations Pressure Air Temp Water Temp Dewpoint Dewpoint Depression Visibility Wind Speed Wind Dir Waves Ship Positions

Habib Express

Last reported at 2018-Jul-20 14:14 UTC. Time now 2018-Jul-23 06:10 UTC.
Position N 25°24' W 079°48'.

Length 90 m; draft 3.7 m.

Type: Cargo ship. MMSI: 677027900.

Date/timePositionNaut miles runAvg speedWind from/ knotsBaromVisibWave heightAir tempDewpointWater temp
2018-Jul-20 14:14N 25°24' W 079°48'2 9.6
2018-Jul-20 13:59N 25°26' W 079°49'4 9.2
2018-Jul-20 13:30N 25°30' W 079°52'5 9.3
2018-Jul-20 13:01N 25°34' W 079°55'5 9.8
2018-Jul-20 12:31N 25°38' W 079°58'5 9.5
2018-Jul-20 12:00N 25°42' W 080°01'5 9.8
2018-Jul-20 11:31N 25°46' W 080°04'511.0
2018-Jul-20 11:01N 25°46' W 080°10'1 2.4
2018-Jul-20 10:31N 25°46' W 080°12'1 2.9
2018-Jul-20 10:01N 25°47' W 080°13'1 2.8
2018-Jul-20 09:30N 25°48' W 080°14'0 0.7
2018-Jul-20 08:59N 25°48' W 080°15'0 0.0
2018-Jul-20 08:29N 25°48' W 080°15'0 0.0
2018-Jul-20 07:59N 25°48' W 080°15'0 0.0
2018-Jul-20 07:29N 25°48' W 080°15'0 0.0
2018-Jul-20 06:59N 25°48' W 080°15'0 0.0
2018-Jul-20 06:29N 25°48' W 080°15'0 0.0
2018-Jul-20 05:59N 25°48' W 080°15'0 0.0
2018-Jul-20 05:29N 25°48' W 080°15'0 0.0
2018-Jul-20 04:59N 25°48' W 080°15'0 0.0
2018-Jul-20 04:29N 25°48' W 080°15'0 0.0
2018-Jul-20 03:59N 25°48' W 080°15'0 0.0
2018-Jul-20 03:26N 25°48' W 080°15'0 0.0
2018-Jul-20 02:59N 25°48' W 080°15'0 0.0
2018-Jul-20 02:23N 25°48' W 080°15'0 0.0
2018-Jul-20 01:59N 25°48' W 080°15'0 0.0
2018-Jul-20 01:26N 25°48' W 080°15'0 0.0
2018-Jul-20 00:59N 25°48' W 080°15'0 0.0
2018-Jul-20 00:26N 25°48' W 080°15'0 0.0
2018-Jul-19 23:59N 25°48' W 080°15'0 0.0
2018-Jul-19 23:29N 25°48' W 080°15'0 0.0
2018-Jul-19 22:59N 25°48' W 080°15'0 0.0
2018-Jul-19 22:29N 25°48' W 080°15'0 0.0
2018-Jul-19 21:59N 25°48' W 080°15'0 0.0
2018-Jul-19 21:26N 25°48' W 080°15'0 0.0
2018-Jul-19 20:59N 25°48' W 080°15'0 0.0
2018-Jul-19 20:29N 25°48' W 080°15'0 0.0
2018-Jul-19 19:59N 25°48' W 080°15'0 0.0
2018-Jul-19 19:29N 25°48' W 080°15'0 0.0
2018-Jul-19 18:59N 25°48' W 080°15'0 0.0
2018-Jul-19 18:29N 25°48' W 080°15'0 0.0
2018-Jul-19 17:59N 25°48' W 080°15'0 0.0
2018-Jul-19 17:29N 25°48' W 080°15'0 0.0
2018-Jul-19 16:59N 25°48' W 080°15'0 0.3
2018-Jul-19 16:30N 25°48' W 080°15'1 2.5
2018-Jul-19 16:00N 25°47' W 080°13'1 3.0
2018-Jul-19 15:30N 25°46' W 080°12'1 2.9
2018-Jul-19 15:01N 25°46' W 080°10'5 5.0
2018-Jul-19 14:01N 25°47' W 080°05'0 0.1
2018-Jul-19 13:29N 25°47' W 080°05'0 0.0
2018-Jul-19 12:59N 25°47' W 080°05'0 0.0
2018-Jul-19 12:29N 25°47' W 080°05'0 0.0
2018-Jul-19 11:59N 25°47' W 080°05'0 0.0
2018-Jul-19 11:29N 25°47' W 080°05'0 0.0
2018-Jul-19 10:59N 25°47' W 080°05'0 0.0
2018-Jul-19 10:29N 25°47' W 080°05'0 0.0
2018-Jul-19 09:59N 25°47' W 080°05'0 0.0
2018-Jul-19 09:29N 25°47' W 080°05'0 0.0
2018-Jul-19 08:59N 25°47' W 080°05'0 0.0
2018-Jul-19 08:29N 25°47' W 080°05'0 0.0
2018-Jul-19 07:59N 25°47' W 080°05'0 0.1
2018-Jul-19 07:29N 25°47' W 080°05'0 0.0
2018-Jul-19 06:59N 25°47' W 080°05'2 3.3
2018-Jul-19 06:30N 25°46' W 080°04'612.0
2018-Jul-19 06:00N 25°40' W 080°02'612.1
2018-Jul-19 05:30N 25°35' W 079°59'714.8
2018-Jul-19 05:00N 25°28' W 079°55'714.7
2018-Jul-19 04:30N 25°22' W 079°50'  
2018-Jul-12 03:16N 25°36' W 079°58'310.0
2018-Jul-12 03:00N 25°38' W 079°59'611.4
2018-Jul-12 02:30N 25°43' W 080°02'4 7.6
2018-Jul-12 01:58N 25°46' W 080°05'3 7.5
2018-Jul-12 01:30N 25°46' W 080°09'2 3.6
2018-Jul-12 01:00N 25°46' W 080°11'2 2.8
2018-Jul-12 00:17N 25°47' W 080°13'2 0.2
2018-Jul-11 14:59N 25°48' W 080°15'0 0.0
2018-Jul-11 14:29N 25°48' W 080°15'0 0.0
2018-Jul-11 13:59N 25°48' W 080°15'0 0.0
2018-Jul-11 13:29N 25°48' W 080°15'0 0.0
2018-Jul-11 12:59N 25°48' W 080°15'0 0.0
2018-Jul-11 12:29N 25°48' W 080°15'0 0.0
2018-Jul-11 11:59N 25°48' W 080°15'0 0.0
2018-Jul-11 11:23N 25°48' W 080°15'0 0.0
2018-Jul-11 10:53N 25°48' W 080°15'0 0.0
2018-Jul-11 10:26N 25°48' W 080°15'0 0.0
2018-Jul-11 09:56N 25°48' W 080°15'0 0.0
2018-Jul-11 09:29N 25°48' W 080°15'0 0.0
2018-Jul-11 08:59N 25°48' W 080°15'0 0.0
2018-Jul-11 08:26N 25°48' W 080°15'0 0.0
2018-Jul-11 07:59N 25°48' W 080°15'0 0.0
2018-Jul-11 07:26N 25°48' W 080°15'0 0.0
2018-Jul-11 06:56N 25°48' W 080°15'0 0.0
2018-Jul-11 06:29N 25°48' W 080°15'0 0.0
2018-Jul-11 05:56N 25°48' W 080°15'0 0.0
2018-Jul-11 05:26N 25°48' W 080°15'0 0.0
2018-Jul-11 04:59N 25°48' W 080°15'0 0.0
2018-Jul-11 04:29N 25°48' W 080°15'0 0.0
2018-Jul-11 03:59N 25°48' W 080°15'0 0.0
2018-Jul-11 03:29N 25°48' W 080°15'0 0.0
2018-Jul-11 02:56N 25°48' W 080°15'0 0.0
2018-Jul-11 02:29N 25°48' W 080°15'0 0.0
2018-Jul-11 01:56N 25°48' W 080°15'0 0.0
2018-Jul-11 01:29N 25°48' W 080°15'0 0.0
2018-Jul-11 00:59N 25°48' W 080°15'0 0.0
2018-Jul-11 00:29N 25°48' W 080°15'0 0.0
2018-Jul-10 23:59N 25°48' W 080°15'0 0.0
2018-Jul-10 23:26N 25°48' W 080°15'0 0.0
2018-Jul-10 22:59N 25°48' W 080°15'0 0.0
2018-Jul-10 22:29N 25°48' W 080°15'0 0.0
2018-Jul-10 21:59N 25°48' W 080°15'0 0.0
2018-Jul-10 21:26N 25°48' W 080°15'0 0.0
2018-Jul-10 20:59N 25°48' W 080°15'0 0.0
2018-Jul-10 20:29N 25°48' W 080°15'0 0.0
2018-Jul-10 19:59N 25°48' W 080°15'0 0.0
2018-Jul-10 19:29N 25°48' W 080°15'0 0.0
2018-Jul-10 18:53N 25°48' W 080°15'0 0.0
2018-Jul-10 18:29N 25°48' W 080°15'0 0.0
2018-Jul-10 17:59N 25°48' W 080°15'0 0.0
2018-Jul-10 17:29N 25°48' W 080°15'0 0.0
2018-Jul-10 16:50N 25°48' W 080°15'0 0.0
2018-Jul-10 16:23N 25°48' W 080°15'0 0.0
2018-Jul-10 15:56N 25°48' W 080°15'0 0.0
2018-Jul-10 15:26N 25°48' W 080°15'0 0.0
2018-Jul-10 14:56N 25°48' W 080°15'0 0.0
2018-Jul-10 14:26N 25°48' W 080°15'  

Dump ship's entire track history